Time;durP1;ratioP1;P1;durP2;ratioP2;P2;SDS_P1;SDS_P2;PMS_P1;PMS_P2;Temp;Humidity;BMP_temperature;BMP_pressure;BME280_temperature;BME280_humidity;BME280_pressure;Samples;Min_cycle;Max_cycle;Signal;HPM_P1;HPM_P2
2023/04/06 00:00:54;;;;;;;6.72;3.83;;;;;;;;;;5020132;28;20059;-84
2023/04/06 00:03:20;;;;;;;10.10;4.78;;;;;;;;;;5013403;28;20029;-84
2023/04/06 00:06:35;;;;;;;9.02;4.47;;;;;;;;;;5027824;28;20081;-84
2023/04/06 00:09:18;;;;;;;7.68;3.78;;;;;;;;;;5022313;28;20048;-85
2023/04/06 00:11:43;;;;;;;7.72;3.28;;;;;;;;;;5033100;28;20060;-85
2023/04/06 00:14:09;;;;;;;7.97;4.00;;;;;;;;;;5035465;28;20022;-85
2023/04/06 00:16:34;;;;;;;9.80;4.55;;;;;;;;;;5042008;28;20056;-84
2023/04/06 00:19:00;;;;;;;6.40;3.80;;;;;;;;;;5026795;28;20064;-86
2023/04/06 00:21:26;;;;;;;11.88;5.43;;;;;;;;;;5034022;28;20048;-86
2023/04/06 00:23:52;;;;;;;4.70;3.42;;;;;;;;;;5025079;28;20033;-85
2023/04/06 00:26:17;;;;;;;4.57;4.05;;;;;;;;;;5033118;28;20052;-84
2023/04/06 00:28:42;;;;;;;7.10;3.67;;;;;;;;;;5017815;28;20138;-85
2023/04/06 00:31:08;;;;;;;5.45;3.22;;;;;;;;;;5034115;28;20034;-84
2023/04/06 00:33:33;;;;;;;9.18;3.97;;;;;;;;;;5032623;28;20037;-84
2023/04/06 00:35:59;;;;;;;7.78;4.72;;;;;;;;;;5032829;28;20056;-84
2023/04/06 00:38:24;;;;;;;9.52;4.22;;;;;;;;;;5035536;28;20033;-85
2023/04/06 00:40:50;;;;;;;7.20;4.05;;;;;;;;;;5035375;28;20024;-84
2023/04/06 00:43:15;;;;;;;8.60;5.05;;;;;;;;;;5038353;28;20048;-84
2023/04/06 00:45:41;;;;;;;6.88;4.00;;;;;;;;;;5025071;28;20060;-84
2023/04/06 00:48:08;;;;;;;5.85;3.72;;;;;;;;;;5031881;28;20696;-83
2023/04/06 00:50:34;;;;;;;7.72;4.22;;;;;;;;;;5028873;28;20071;-83
2023/04/06 00:53:00;;;;;;;6.70;4.75;;;;;;;;;;5029698;28;20029;-84
2023/04/06 00:55:28;;;;;;;8.93;4.65;;;;;;;;;;5028287;28;20032;-84
2023/04/06 00:57:56;;;;;;;4.57;3.75;;;;;;;;;;5013830;28;20029;-84
2023/04/06 01:00:22;;;;;;;5.55;3.30;;;;;;;;;;5014447;28;20061;-82
2023/04/06 01:02:47;;;;;;;5.38;3.78;;;;;;;;;;5027033;28;20067;-86
2023/04/06 01:05:13;;;;;;;8.52;3.80;;;;;;;;;;5013933;28;20052;-85
2023/04/06 01:07:39;;;;;;;7.45;3.80;;;;;;;;;;5015336;28;20130;-84
2023/04/06 01:10:05;;;;;;;10.48;4.40;;;;;;;;;;5026207;28;20551;-84
2023/04/06 01:12:30;;;;;;;5.80;3.92;;;;;;;;;;5012174;28;20044;-84
2023/04/06 01:14:56;;;;;;;8.18;4.63;;;;;;;;;;5029717;28;20025;-85
2023/04/06 01:17:21;;;;;;;8.20;4.22;;;;;;;;;;5027624;28;20037;-83
2023/04/06 01:19:49;;;;;;;6.40;3.92;;;;;;;;;;5027045;28;20308;-84
2023/04/06 01:22:17;;;;;;;4.72;3.58;;;;;;;;;;5027863;28;20025;-85
2023/04/06 01:24:43;;;;;;;6.07;3.83;;;;;;;;;;5029278;28;20051;-84
2023/04/06 01:27:08;;;;;;;6.15;3.83;;;;;;;;;;5028104;28;20024;-85
2023/04/06 01:29:33;;;;;;;4.90;3.60;;;;;;;;;;5029637;28;20032;-85
2023/04/06 01:31:59;;;;;;;6.40;3.40;;;;;;;;;;5028164;28;20041;-86
2023/04/06 01:34:24;;;;;;;7.43;4.05;;;;;;;;;;5016031;28;20040;-85
2023/04/06 01:36:50;;;;;;;7.78;3.83;;;;;;;;;;5029935;28;20029;-86
2023/04/06 01:39:15;;;;;;;6.28;4.00;;;;;;;;;;5015954;28;20028;-85
2023/04/06 01:41:40;;;;;;;8.55;3.85;;;;;;;;;;5011695;28;20029;-85
2023/04/06 01:44:06;;;;;;;5.03;2.53;;;;;;;;;;5027061;28;20025;-86
2023/04/06 01:46:31;;;;;;;4.20;3.28;;;;;;;;;;5024526;28;20455;-85
2023/04/06 01:48:57;;;;;;;7.50;4.40;;;;;;;;;;5028078;28;20104;-85
2023/04/06 01:51:22;;;;;;;6.72;4.72;;;;;;;;;;5016804;28;20065;-85
2023/04/06 01:53:49;;;;;;;7.53;4.22;;;;;;;;;;5013727;28;20094;-85
2023/04/06 01:56:14;;;;;;;4.82;3.50;;;;;;;;;;5012899;28;20026;-85
2023/04/06 01:58:39;;;;;;;6.97;3.55;;;;;;;;;;5027927;28;20021;-85
2023/04/06 02:01:05;;;;;;;6.90;4.03;;;;;;;;;;5027647;28;20143;-84
2023/04/06 02:03:31;;;;;;;9.13;3.65;;;;;;;;;;5026869;28;20033;-84
2023/04/06 02:05:56;;;;;;;5.15;3.33;;;;;;;;;;5024858;28;20041;-85
2023/04/06 02:08:22;;;;;;;4.07;3.65;;;;;;;;;;5028338;28;20067;-86
2023/04/06 02:10:47;;;;;;;4.25;2.80;;;;;;;;;;5014726;28;20336;-85
2023/04/06 02:13:12;;;;;;;5.78;3.45;;;;;;;;;;5016288;28;20041;-85
2023/04/06 02:15:38;;;;;;;7.70;4.03;;;;;;;;;;5008594;28;20037;-86
2023/04/06 02:18:03;;;;;;;5.25;3.78;;;;;;;;;;5025964;28;20034;-84
2023/04/06 02:20:29;;;;;;;4.78;3.50;;;;;;;;;;5030440;28;20029;-85
2023/04/06 02:22:58;;;;;;;7.95;3.97;;;;;;;;;;5015135;28;20028;-85
2023/04/06 02:25:23;;;;;;;7.70;3.85;;;;;;;;;;5029866;28;20033;-85
2023/04/06 02:27:49;;;;;;;8.65;4.53;;;;;;;;;;5031906;28;20081;-85
2023/04/06 02:30:14;;;;;;;5.20;3.15;;;;;;;;;;5031699;28;20040;-86
2023/04/06 02:32:40;;;;;;;6.75;3.63;;;;;;;;;;5033556;28;20032;-86
2023/04/06 02:35:05;;;;;;;6.13;3.70;;;;;;;;;;5017251;28;20056;-85
2023/04/06 02:37:30;;;;;;;5.38;3.20;;;;;;;;;;5018844;28;20489;-85
2023/04/06 02:39:56;;;;;;;6.18;3.88;;;;;;;;;;5023750;28;20028;-85
2023/04/06 02:42:21;;;;;;;8.75;3.55;;;;;;;;;;5033057;28;20506;-85
2023/04/06 02:44:49;;;;;;;6.72;4.15;;;;;;;;;;5030808;28;20488;-85
2023/04/06 02:47:15;;;;;;;4.10;3.05;;;;;;;;;;5028415;28;20021;-85
2023/04/06 02:49:40;;;;;;;13.63;4.20;;;;;;;;;;5034263;28;20057;-85
2023/04/06 02:52:06;;;;;;;7.80;3.47;;;;;;;;;;5031625;28;20026;-85
2023/04/06 02:54:31;;;;;;;4.82;3.10;;;;;;;;;;5031107;28;20520;-85
2023/04/06 02:56:57;;;;;;;5.35;3.88;;;;;;;;;;5021007;28;20021;-85
2023/04/06 02:59:22;;;;;;;5.63;4.00;;;;;;;;;;5032579;28;20064;-85
2023/04/06 03:01:47;;;;;;;4.60;3.15;;;;;;;;;;5036478;28;20079;-85
2023/04/06 03:04:16;;;;;;;5.03;3.67;;;;;;;;;;5033925;28;20017;-85
2023/04/06 03:06:41;;;;;;;5.70;3.67;;;;;;;;;;5051545;28;20029;-85
2023/04/06 03:09:07;;;;;;;7.00;4.40;;;;;;;;;;5053537;28;20037;-85
2023/04/06 03:11:32;;;;;;;10.13;3.85;;;;;;;;;;5032994;28;20056;-86
2023/04/06 03:13:58;;;;;;;9.20;3.95;;;;;;;;;;5034552;28;20045;-85
2023/04/06 03:16:24;;;;;;;5.28;3.35;;;;;;;;;;5032337;28;20112;-85
2023/04/06 03:18:49;;;;;;;7.20;3.72;;;;;;;;;;5032582;28;20101;-85
2023/04/06 03:21:15;;;;;;;7.25;4.03;;;;;;;;;;5021998;28;20025;-85
2023/04/06 03:23:40;;;;;;;7.07;4.10;;;;;;;;;;5027635;28;20026;-85
2023/04/06 03:26:06;;;;;;;6.13;4.32;;;;;;;;;;5018288;28;20025;-85
2023/04/06 03:28:31;;;;;;;14.63;4.18;;;;;;;;;;5032812;28;20126;-86
2023/04/06 03:30:57;;;;;;;7.90;3.85;;;;;;;;;;5024100;28;20031;-85
2023/04/06 03:33:22;;;;;;;8.98;4.07;;;;;;;;;;5028978;28;20040;-85
2023/04/06 03:35:47;;;;;;;5.30;4.03;;;;;;;;;;5030720;28;20370;-84
2023/04/06 03:38:13;;;;;;;5.35;3.40;;;;;;;;;;5020094;28;20999;-84
2023/04/06 03:40:38;;;;;;;10.30;3.45;;;;;;;;;;5028085;28;20060;-86
2023/04/06 03:43:04;;;;;;;5.05;3.85;;;;;;;;;;5031806;28;20029;-85
2023/04/06 03:45:30;;;;;;;9.52;4.07;;;;;;;;;;5014736;28;20057;-85
2023/04/06 03:47:55;;;;;;;7.57;5.13;;;;;;;;;;5030130;28;20025;-85
2023/04/06 03:50:21;;;;;;;4.43;3.13;;;;;;;;;;5018991;28;20041;-84
2023/04/06 03:52:46;;;;;;;6.63;3.80;;;;;;;;;;5031200;28;20025;-85
2023/04/06 03:55:11;;;;;;;7.35;3.90;;;;;;;;;;5034561;28;20033;-83
2023/04/06 03:57:37;;;;;;;7.75;3.95;;;;;;;;;;5033116;28;20061;-83
2023/04/06 04:00:03;;;;;;;6.45;3.65;;;;;;;;;;5032632;28;20030;-83
2023/04/06 04:02:29;;;;;;;5.47;3.63;;;;;;;;;;5034314;28;20405;-83
2023/04/06 04:04:54;;;;;;;8.82;4.07;;;;;;;;;;5031401;28;20526;-82
2023/04/06 04:07:20;;;;;;;4.60;3.42;;;;;;;;;;5033558;28;20041;-83
2023/04/06 04:09:45;;;;;;;6.55;3.03;;;;;;;;;;5035964;28;20814;-83
2023/04/06 04:12:10;;;;;;;5.63;3.00;;;;;;;;;;5037004;28;20037;-82
2023/04/06 04:14:36;;;;;;;5.90;3.53;;;;;;;;;;5035206;28;20052;-83
2023/04/06 04:17:01;;;;;;;5.35;3.28;;;;;;;;;;5033714;28;20485;-83
2023/04/06 04:19:26;;;;;;;7.75;3.58;;;;;;;;;;5048240;28;20092;-84
2023/04/06 04:21:52;;;;;;;4.35;3.25;;;;;;;;;;5054015;28;20029;-83
2023/04/06 04:24:17;;;;;;;7.57;4.00;;;;;;;;;;5045435;28;20022;-84
2023/04/06 04:26:42;;;;;;;4.93;3.75;;;;;;;;;;5036215;28;20021;-82
2023/04/06 04:29:09;;;;;;;4.85;3.40;;;;;;;;;;5039018;28;20021;-84
2023/04/06 04:31:34;;;;;;;6.65;4.25;;;;;;;;;;5035752;28;20025;-84
2023/04/06 04:34:00;;;;;;;7.82;4.13;;;;;;;;;;5035537;28;20052;-83
2023/04/06 04:36:26;;;;;;;7.45;3.80;;;;;;;;;;5035511;28;20035;-83
2023/04/06 04:38:54;;;;;;;5.43;3.50;;;;;;;;;;5032778;28;20056;-83
2023/04/06 04:41:20;;;;;;;4.38;3.28;;;;;;;;;;5035715;28;20072;-83
2023/04/06 04:43:45;;;;;;;5.30;3.45;;;;;;;;;;5026341;28;20022;-83
2023/04/06 04:46:11;;;;;;;4.68;3.75;;;;;;;;;;5038779;28;20021;-83
2023/04/06 04:48:36;;;;;;;4.43;3.40;;;;;;;;;;5034428;28;20495;-82
2023/04/06 04:51:02;;;;;;;4.53;3.63;;;;;;;;;;5047432;28;20059;-84
2023/04/06 04:53:27;;;;;;;6.85;4.47;;;;;;;;;;5035386;28;20021;-83
2023/04/06 04:55:52;;;;;;;3.20;2.63;;;;;;;;;;5022228;28;20500;-82
2023/04/06 04:58:19;;;;;;;4.28;3.47;;;;;;;;;;5035229;28;20374;-83
2023/04/06 05:00:48;;;;;;;8.35;3.33;;;;;;;;;;5032337;28;20025;-83
2023/04/06 05:03:20;;;;;;;6.00;3.72;;;;;;;;;;5031604;28;20116;-84
2023/04/06 05:05:45;;;;;;;;;;;;;;;;;;5031123;28;20029;-84
2023/04/06 05:08:11;;;;;;;4.00;2.92;;;;;;;;;;5033003;28;19909;-84
2023/04/06 05:10:37;;;;;;;5.95;4.07;;;;;;;;;;5033544;28;20091;-83
2023/04/06 05:13:02;;;;;;;4.82;3.38;;;;;;;;;;5034779;28;20112;-84
2023/04/06 05:15:27;;;;;;;5.88;3.88;;;;;;;;;;5033053;28;20404;-85
2023/04/06 05:17:53;;;;;;;19.90;4.05;;;;;;;;;;5031171;28;20041;-84
2023/04/06 05:20:18;;;;;;;3.42;3.13;;;;;;;;;;5022201;28;20040;-83
2023/04/06 05:22:44;;;;;;;6.22;4.55;;;;;;;;;;5034967;28;20025;-83
2023/04/06 05:25:10;;;;;;;4.93;3.00;;;;;;;;;;5013594;28;20022;-84
2023/04/06 05:27:35;;;;;;;4.75;3.58;;;;;;;;;;5026252;28;20018;-84
2023/04/06 05:30:01;;;;;;;6.57;4.63;;;;;;;;;;5015948;28;20057;-83
2023/04/06 05:32:27;;;;;;;7.30;4.22;;;;;;;;;;5024391;28;20041;-85
2023/04/06 05:34:52;;;;;;;10.25;4.38;;;;;;;;;;5025910;28;20033;-83
2023/04/06 05:37:18;;;;;;;9.82;4.47;;;;;;;;;;5017756;28;20036;-83
2023/04/06 05:39:43;;;;;;;7.07;4.85;;;;;;;;;;5010128;28;20041;-84
2023/04/06 05:42:08;;;;;;;6.53;3.25;;;;;;;;;;5020353;28;20021;-83
2023/04/06 05:44:35;;;;;;;4.60;3.70;;;;;;;;;;5023474;28;20036;-83
2023/04/06 05:47:00;;;;;;;6.13;4.13;;;;;;;;;;5017540;28;20021;-82
2023/04/06 05:49:26;;;;;;;11.75;5.32;;;;;;;;;;5026645;28;20105;-84
2023/04/06 05:51:51;;;;;;;8.43;4.72;;;;;;;;;;5024176;28;20037;-82
2023/04/06 05:54:17;;;;;;;15.15;4.57;;;;;;;;;;5018116;28;20493;-83
2023/04/06 05:56:42;;;;;;;4.93;4.05;;;;;;;;;;5020773;28;20057;-83
2023/04/06 05:59:07;;;;;;;7.82;5.45;;;;;;;;;;5032108;28;20030;-84
2023/04/06 06:01:34;;;;;;;8.13;4.80;;;;;;;;;;5027348;28;20040;-84
2023/04/06 06:04:03;;;;;;;11.48;4.88;;;;;;;;;;5030825;28;20036;-83
2023/04/06 06:06:31;;;;;;;13.75;4.75;;;;;;;;;;5028564;28;20115;-82
2023/04/06 06:09:00;;;;;;;6.15;4.75;;;;;;;;;;5024911;28;20022;-84
2023/04/06 06:11:27;;;;;;;15.00;6.32;;;;;;;;;;5031690;28;20037;-84
2023/04/06 06:13:52;;;;;;;12.57;6.22;;;;;;;;;;5017922;28;20060;-85
2023/04/06 06:16:18;;;;;;;8.32;5.53;;;;;;;;;;5030576;28;21033;-84
2023/04/06 06:18:43;;;;;;;10.10;6.18;;;;;;;;;;5030203;28;20025;-85
2023/04/06 06:21:09;;;;;;;9.10;5.80;;;;;;;;;;5032659;28;20029;-85
2023/04/06 06:23:35;;;;;;;11.40;5.57;;;;;;;;;;5031508;28;20032;-84
2023/04/06 06:26:01;;;;;;;7.72;5.47;;;;;;;;;;5031706;28;20440;-82
2023/04/06 06:28:26;;;;;;;17.08;6.32;;;;;;;;;;5031671;28;20041;-85
2023/04/06 06:30:52;;;;;;;6.85;4.90;;;;;;;;;;5032439;28;20039;-84
2023/04/06 06:33:17;;;;;;;10.25;5.43;;;;;;;;;;5030973;28;20108;-84
2023/04/06 06:35:42;;;;;;;9.95;6.22;;;;;;;;;;5029531;28;20025;-85
2023/04/06 06:38:08;;;;;;;9.65;5.90;;;;;;;;;;5028373;28;20030;-84
2023/04/06 06:40:34;;;;;;;8.90;6.25;;;;;;;;;;5032454;28;20383;-82
2023/04/06 06:42:59;;;;;;;6.47;5.03;;;;;;;;;;5029286;28;20075;-85
2023/04/06 06:45:25;;;;;;;22.52;6.95;;;;;;;;;;5030408;28;20052;-84
2023/04/06 06:47:50;;;;;;;19.02;7.63;;;;;;;;;;5027322;28;20018;-83
2023/04/06 06:50:16;;;;;;;13.50;6.38;;;;;;;;;;5027713;28;20025;-84
2023/04/06 06:52:43;;;;;;;12.95;6.32;;;;;;;;;;5030887;28;20028;-84
2023/04/06 06:55:11;;;;;;;9.88;6.50;;;;;;;;;;5020722;28;20025;-86
2023/04/06 06:57:38;;;;;;;18.25;6.78;;;;;;;;;;5029991;28;20026;-87
2023/04/06 07:00:05;;;;;;;11.30;6.75;;;;;;;;;;5029738;28;20049;-85
2023/04/06 07:02:30;;;;;;;13.55;6.22;;;;;;;;;;5028397;28;20025;-87
2023/04/06 07:04:56;;;;;;;10.48;6.05;;;;;;;;;;5030651;28;20497;-88
2023/04/06 07:07:21;;;;;;;11.90;7.15;;;;;;;;;;5025738;28;20079;-87
2023/04/06 07:09:46;;;;;;;14.50;6.82;;;;;;;;;;5019117;28;20124;-89
2023/04/06 07:12:12;;;;;;;11.63;6.50;;;;;;;;;;5029118;28;20045;-86
2023/04/06 07:14:37;;;;;;;13.23;6.28;;;;;;;;;;5029874;28;20029;-87
2023/04/06 07:17:03;;;;;;;17.77;6.55;;;;;;;;;;5019924;28;20025;-86
2023/04/06 07:19:28;;;;;;;12.40;6.40;;;;;;;;;;5018058;28;20033;-87
2023/04/06 07:21:54;;;;;;;10.90;6.32;;;;;;;;;;5028587;28;20113;-87
2023/04/06 07:24:19;;;;;;;11.63;6.53;;;;;;;;;;5020133;28;20021;-86
2023/04/06 07:26:45;;;;;;;12.63;7.20;;;;;;;;;;5021550;28;20021;-88
2023/04/06 07:29:10;;;;;;;13.32;6.70;;;;;;;;;;5035425;28;20108;-87
2023/04/06 07:31:36;;;;;;;16.77;6.32;;;;;;;;;;5020418;28;20037;-87
2023/04/06 07:34:01;;;;;;;15.25;7.05;;;;;;;;;;5025099;28;20033;-87
2023/04/06 07:36:27;;;;;;;13.45;7.00;;;;;;;;;;5031192;28;20029;-87
2023/04/06 07:38:52;;;;;;;12.77;6.47;;;;;;;;;;5029317;28;20054;-87
2023/04/06 07:41:18;;;;;;;11.73;7.18;;;;;;;;;;5032429;28;20030;-87
2023/04/06 07:43:43;;;;;;;15.52;7.07;;;;;;;;;;5033694;28;20036;-88
2023/04/06 07:46:09;;;;;;;12.43;7.00;;;;;;;;;;5022235;28;20061;-87
2023/04/06 07:48:34;;;;;;;10.68;6.47;;;;;;;;;;5020542;28;20044;-87
2023/04/06 07:51:04;;;;;;;16.63;7.05;;;;;;;;;;5020273;28;20144;-87
2023/04/06 07:53:30;;;;;;;9.45;5.95;;;;;;;;;;5033732;28;20036;-87
2023/04/06 07:55:57;;;;;;;11.18;6.93;;;;;;;;;;5024776;28;20037;-87
2023/04/06 07:58:23;;;;;;;11.15;6.60;;;;;;;;;;5030823;28;20040;-87
2023/04/06 08:00:48;;;;;;;11.95;6.88;;;;;;;;;;5034806;28;20021;-87
2023/04/06 08:03:13;;;;;;;11.20;6.13;;;;;;;;;;5019443;28;20032;-87
2023/04/06 08:05:39;;;;;;;11.43;6.03;;;;;;;;;;5028761;28;20021;-88
2023/04/06 08:08:04;;;;;;;12.50;6.40;;;;;;;;;;5032002;28;20477;-87
2023/04/06 08:10:30;;;;;;;12.43;6.85;;;;;;;;;;5033797;28;20049;-86
2023/04/06 08:12:55;;;;;;;14.43;6.93;;;;;;;;;;5031657;28;20029;-88
2023/04/06 08:15:20;;;;;;;12.43;7.18;;;;;;;;;;5034594;28;20822;-86
2023/04/06 08:17:46;;;;;;;11.65;6.50;;;;;;;;;;5034480;28;20071;-88
2023/04/06 08:20:11;;;;;;;10.57;6.40;;;;;;;;;;5022461;28;20029;-88
2023/04/06 08:22:37;;;;;;;10.80;6.32;;;;;;;;;;5033076;28;20029;-88
2023/04/06 08:25:03;;;;;;;13.60;6.18;;;;;;;;;;5034668;28;20036;-87
2023/04/06 08:27:28;;;;;;;13.77;6.45;;;;;;;;;;5030693;28;20052;-87
2023/04/06 08:29:57;;;;;;;11.40;6.60;;;;;;;;;;5033994;28;20079;-87
2023/04/06 08:32:22;;;;;;;13.15;6.20;;;;;;;;;;5035235;28;20022;-88
2023/04/06 08:34:48;;;;;;;10.73;6.55;;;;;;;;;;5024518;28;20026;-87
2023/04/06 08:37:13;;;;;;;8.82;5.88;;;;;;;;;;5021221;28;20053;-88
2023/04/06 08:39:38;;;;;;;14.05;6.47;;;;;;;;;;5027712;28;20068;-88
2023/04/06 08:42:04;;;;;;;9.07;5.43;;;;;;;;;;5029921;28;20033;-86
2023/04/06 08:44:31;;;;;;;13.07;5.80;;;;;;;;;;5032828;28;20453;-84
2023/04/06 08:46:58;;;;;;;12.30;6.15;;;;;;;;;;5036073;28;20021;-85
2023/04/06 08:49:24;;;;;;;10.50;5.72;;;;;;;;;;5046705;28;20033;-87
2023/04/06 08:51:50;;;;;;;9.15;5.78;;;;;;;;;;5039130;28;20030;-85
2023/04/06 08:54:16;;;;;;;8.52;5.70;;;;;;;;;;5043305;28;20025;-85
2023/04/06 08:56:42;;;;;;;9.43;5.65;;;;;;;;;;5027546;28;20056;-87
2023/04/06 08:59:09;;;;;;;10.25;5.93;;;;;;;;;;5032903;28;20117;-86
2023/04/06 09:01:42;;;;;;;7.63;4.78;;;;;;;;;;5020434;28;20432;-88
2023/04/06 09:04:11;;;;;;;14.20;5.53;;;;;;;;;;5031297;28;20037;-85
2023/04/06 09:06:37;;;;;;;9.52;5.45;;;;;;;;;;5021042;28;20412;-85
2023/04/06 09:09:03;;;;;;;10.90;4.70;;;;;;;;;;5020301;28;20028;-85
2023/04/06 09:11:28;;;;;;;12.57;5.60;;;;;;;;;;5031246;28;20021;-86
2023/04/06 09:13:57;;;;;;;6.95;4.53;;;;;;;;;;5031064;28;20030;-88
2023/04/06 09:16:22;;;;;;;8.00;4.43;;;;;;;;;;5015927;28;20405;-87
2023/04/06 09:18:49;;;;;;;9.43;4.47;;;;;;;;;;5017090;28;20469;-85
2023/04/06 09:21:18;;;;;;;9.35;5.00;;;;;;;;;;5012866;28;20029;-87
2023/04/06 09:23:43;;;;;;;9.43;4.93;;;;;;;;;;5028344;28;20032;-88
2023/04/06 09:26:33;;;;;;;8.15;4.70;;;;;;;;;;5032440;28;20029;-87
2023/04/06 09:29:01;;;;;;;9.73;4.80;;;;;;;;;;5028655;28;20079;-86
2023/04/06 09:31:32;;;;;;;10.63;4.85;;;;;;;;;;5031789;28;20025;-87
2023/04/06 09:33:59;;;;;;;10.27;5.70;;;;;;;;;;5029523;28;20033;-87
2023/04/06 09:36:33;;;;;;;9.57;5.18;;;;;;;;;;5017997;28;20080;-88
2023/04/06 09:39:00;;;;;;;10.60;5.13;;;;;;;;;;5016267;28;20025;-87
2023/04/06 09:41:30;;;;;;;7.70;4.63;;;;;;;;;;5022459;28;20041;-88
2023/04/06 09:44:12;;;;;;;8.57;4.65;;;;;;;;;;5011624;28;20025;-87
2023/04/06 09:46:39;;;;;;;8.98;5.03;;;;;;;;;;5011891;28;20025;-90
2023/04/06 09:49:06;;;;;;;11.27;5.00;;;;;;;;;;5033105;28;20117;-89
2023/04/06 09:51:47;;;;;;;7.80;4.60;;;;;;;;;;5016345;28;20030;-89
2023/04/06 09:54:20;;;;;;;10.30;5.45;;;;;;;;;;5017264;28;20040;-90
2023/04/06 09:56:50;;;;;;;7.95;4.65;;;;;;;;;;5035319;28;20033;-88
2023/04/06 09:59:37;;;;;;;7.75;3.90;;;;;;;;;;5013815;28;20044;-89
2023/04/06 10:02:05;;;;;;;6.90;4.32;;;;;;;;;;5014065;28;20029;-87
2023/04/06 10:04:42;;;;;;;8.80;4.95;;;;;;;;;;5012310;28;20037;-88
2023/04/06 10:07:10;;;;;;;6.40;4.78;;;;;;;;;;5016636;28;20048;-86
2023/04/06 10:09:37;;;;;;;8.73;5.70;;;;;;;;;;5023061;28;20577;-88
2023/04/06 10:12:06;;;;;;;10.73;5.88;;;;;;;;;;5010072;28;20159;-87
2023/04/06 10:14:36;;;;;;;10.20;5.97;;;;;;;;;;5038063;28;20481;-88
2023/04/06 10:17:04;;;;;;;9.35;4.97;;;;;;;;;;5036636;28;20152;-88
2023/04/06 10:19:52;;;;;;;8.40;5.55;;;;;;;;;;5020785;28;20025;-86
2023/04/06 10:22:24;;;;;;;6.32;4.57;;;;;;;;;;5032779;28;20013;-89
2023/04/06 10:24:50;;;;;;;8.88;5.88;;;;;;;;;;5014496;28;20477;-87
2023/04/06 10:27:27;;;;;;;8.77;5.38;;;;;;;;;;5002313;28;20037;-88
2023/04/06 10:29:53;;;;;;;7.85;5.60;;;;;;;;;;5002004;28;20037;-88
2023/04/06 10:32:18;;;;;;;11.15;5.93;;;;;;;;;;5002605;28;20100;-87
2023/04/06 10:34:43;;;;;;;9.70;5.75;;;;;;;;;;5002060;28;20386;-86
2023/04/06 10:37:16;;;;;;;8.98;5.07;;;;;;;;;;5019885;28;20084;-87
2023/04/06 10:40:00;;;;;;;8.30;5.22;;;;;;;;;;5007251;28;20033;-88
2023/04/06 10:42:37;;;;;;;11.18;5.68;;;;;;;;;;5011687;28;20025;-88
2023/04/06 10:45:06;;;;;;;10.57;5.10;;;;;;;;;;5018418;28;20025;-88
2023/04/06 10:47:39;;;;;;;10.75;5.40;;;;;;;;;;5008299;28;20520;-88
2023/04/06 10:50:05;;;;;;;7.90;4.97;;;;;;;;;;5000640;28;20084;-88
2023/04/06 10:52:31;;;;;;;9.07;5.35;;;;;;;;;;5013504;28;20033;-87
2023/04/06 10:54:56;;;;;;;9.52;5.95;;;;;;;;;;5010959;28;20026;-88
2023/04/06 10:57:30;;;;;;;10.18;4.97;;;;;;;;;;5018197;28;20083;-88
2023/04/06 10:59:56;;;;;;;7.50;5.20;;;;;;;;;;5018751;28;20497;-87
2023/04/06 11:02:21;;;;;;;8.38;5.07;;;;;;;;;;5015009;28;20071;-87
2023/04/06 11:04:57;;;;;;;13.00;6.18;;;;;;;;;;5017690;28;20029;-87
2023/04/06 11:07:26;;;;;;;9.63;5.65;;;;;;;;;;4982210;28;20029;-88
2023/04/06 11:09:52;;;;;;;7.95;5.15;;;;;;;;;;5016855;28;20108;-87
2023/04/06 11:12:25;;;;;;;8.95;5.63;;;;;;;;;;5017877;28;20029;-88
2023/04/06 11:14:55;;;;;;;8.43;4.95;;;;;;;;;;5035483;28;20021;-88
2023/04/06 11:17:30;;;;;;;8.27;4.82;;;;;;;;;;5036659;28;20045;-88
2023/04/06 11:19:57;;;;;;;8.35;5.07;;;;;;;;;;5038198;28;20021;-88
2023/04/06 11:22:22;;;;;;;7.82;5.15;;;;;;;;;;5018397;28;20025;-87
2023/04/06 11:24:48;;;;;;;6.75;4.50;;;;;;;;;;5034595;28;20081;-88
2023/04/06 11:27:15;;;;;;;9.95;5.65;;;;;;;;;;5033202;28;20038;-88
2023/04/06 11:29:41;;;;;;;8.48;4.78;;;;;;;;;;5017220;28;20022;-87
2023/04/06 11:32:08;;;;;;;8.45;4.32;;;;;;;;;;5034883;28;20033;-88
2023/04/06 11:34:38;;;;;;;7.00;5.15;;;;;;;;;;5014332;28;20072;-87
2023/04/06 11:37:09;;;;;;;6.07;4.55;;;;;;;;;;5009052;28;20065;-87
2023/04/06 11:39:40;;;;;;;11.32;4.47;;;;;;;;;;5019198;28;20030;-87
2023/04/06 11:42:06;;;;;;;8.57;5.10;;;;;;;;;;5018454;28;20116;-87
2023/04/06 11:44:40;;;;;;;10.07;5.47;;;;;;;;;;5036239;28;20053;-87
2023/04/06 11:47:08;;;;;;;6.53;4.28;;;;;;;;;;5035884;28;20025;-87
2023/04/06 11:49:37;;;;;;;8.77;5.35;;;;;;;;;;5018449;28;20048;-87
2023/04/06 11:52:13;;;;;;;6.60;4.43;;;;;;;;;;5018673;28;20082;-87
2023/04/06 11:54:39;;;;;;;8.15;5.00;;;;;;;;;;5011856;28;20022;-89
2023/04/06 11:57:05;;;;;;;8.07;4.32;;;;;;;;;;5000515;28;20025;-88
2023/04/06 11:59:34;;;;;;;9.30;5.05;;;;;;;;;;5026283;28;20025;-88
2023/04/06 12:01:59;;;;;;;7.65;4.45;;;;;;;;;;5019422;28;20523;-88
2023/04/06 12:04:25;;;;;;;11.85;4.63;;;;;;;;;;5011112;28;20029;-88
2023/04/06 12:06:50;;;;;;;6.35;4.18;;;;;;;;;;5020823;28;20041;-88
2023/04/06 12:09:17;;;;;;;8.98;4.80;;;;;;;;;;5019379;28;20412;-87
2023/04/06 12:11:43;;;;;;;6.03;4.35;;;;;;;;;;5022411;28;20064;-86
2023/04/06 12:14:08;;;;;;;9.18;4.97;;;;;;;;;;5021771;28;20025;-88
2023/04/06 12:16:35;;;;;;;10.05;4.97;;;;;;;;;;5040012;28;20139;-88
2023/04/06 12:19:35;;;;;;;8.73;4.45;;;;;;;;;;5023466;28;20025;-88
2023/04/06 12:22:05;;;;;;;6.07;4.38;;;;;;;;;;5022567;28;20060;-88
2023/04/06 12:24:31;;;;;;;8.95;4.38;;;;;;;;;;5021788;28;20064;-89
2023/04/06 12:26:57;;;;;;;6.88;4.40;;;;;;;;;;5022261;28;20018;-88
2023/04/06 12:29:24;;;;;;;6.78;3.97;;;;;;;;;;5017932;28;20014;-88
2023/04/06 12:31:50;;;;;;;7.20;4.43;;;;;;;;;;5036426;28;20081;-89
2023/04/06 12:34:16;;;;;;;8.63;4.63;;;;;;;;;;5048180;28;20006;-89
2023/04/06 12:36:46;;;;;;;9.10;4.97;;;;;;;;;;5026677;28;20053;-87
2023/04/06 12:39:16;;;;;;;7.38;4.38;;;;;;;;;;5023079;28;20036;-88
2023/04/06 12:41:42;;;;;;;6.10;3.88;;;;;;;;;;5021955;28;20101;-87
2023/04/06 12:44:07;;;;;;;11.65;4.28;;;;;;;;;;5034227;28;20144;-88
2023/04/06 12:46:33;;;;;;;6.60;4.15;;;;;;;;;;5034761;28;20413;-87
2023/04/06 12:48:59;;;;;;;13.10;4.03;;;;;;;;;;5042833;28;20100;-87
2023/04/06 12:51:28;;;;;;;8.65;4.43;;;;;;;;;;5020152;28;20026;-87
2023/04/06 12:53:53;;;;;;;6.53;4.30;;;;;;;;;;5021978;28;20083;-89
2023/04/06 12:56:20;;;;;;;8.23;3.70;;;;;;;;;;5031540;28;20048;-87
2023/04/06 12:58:46;;;;;;;5.22;3.58;;;;;;;;;;5013294;28;20058;-88
2023/04/06 13:01:12;;;;;;;6.53;4.03;;;;;;;;;;5027872;28;20022;-87
2023/04/06 13:03:39;;;;;;;10.75;4.30;;;;;;;;;;5028202;28;20040;-88
2023/04/06 13:06:04;;;;;;;6.75;3.95;;;;;;;;;;5019333;28;20054;-88
2023/04/06 13:08:30;;;;;;;5.78;3.95;;;;;;;;;;5004537;28;20002;-88
2023/04/06 13:10:56;;;;;;;6.35;4.03;;;;;;;;;;5001341;28;20025;-88
2023/04/06 13:13:26;;;;;;;14.13;4.00;;;;;;;;;;5038157;28;20064;-88
2023/04/06 13:15:56;;;;;;;6.70;3.88;;;;;;;;;;5035276;28;20394;-88
2023/04/06 13:18:22;;;;;;;7.40;3.90;;;;;;;;;;5032337;28;20473;-88
2023/04/06 13:20:48;;;;;;;5.50;3.78;;;;;;;;;;5025825;28;20022;-88
2023/04/06 13:23:14;;;;;;;8.27;4.65;;;;;;;;;;5017493;28;20032;-87
2023/04/06 13:25:39;;;;;;;8.98;4.50;;;;;;;;;;5000262;28;20060;-88
2023/04/06 13:28:05;;;;;;;7.35;3.60;;;;;;;;;;5015348;28;20024;-88
2023/04/06 13:30:30;;;;;;;5.35;3.60;;;;;;;;;;5036991;28;20034;-87
2023/04/06 13:32:56;;;;;;;7.03;4.07;;;;;;;;;;5027181;28;20052;-86
2023/04/06 13:35:21;;;;;;;8.63;4.05;;;;;;;;;;5021176;28;20451;-86
2023/04/06 13:37:48;;;;;;;8.18;4.40;;;;;;;;;;5020775;28;20080;-88
2023/04/06 13:40:13;;;;;;;9.25;4.00;;;;;;;;;;5016998;28;20026;-86
2023/04/06 13:42:40;;;;;;;6.18;3.92;;;;;;;;;;5000129;28;20099;-87
2023/04/06 13:45:06;;;;;;;6.20;4.13;;;;;;;;;;5022884;28;20079;-86
2023/04/06 13:47:32;;;;;;;10.18;4.65;;;;;;;;;;5022069;28;20124;-87
2023/04/06 13:49:57;;;;;;;9.73;4.07;;;;;;;;;;5000905;28;20072;-88
2023/04/06 13:52:23;;;;;;;8.43;4.60;;;;;;;;;;5030860;28;20041;-87
2023/04/06 13:54:54;;;;;;;6.32;4.22;;;;;;;;;;5013663;28;20036;-86
2023/04/06 13:57:20;;;;;;;8.65;4.85;;;;;;;;;;5009468;28;20022;-88
2023/04/06 13:59:50;;;;;;;5.97;4.20;;;;;;;;;;5001980;28;20093;-88
2023/04/06 14:02:16;;;;;;;10.57;4.80;;;;;;;;;;5002009;28;20033;-85
2023/04/06 14:04:41;;;;;;;12.32;4.50;;;;;;;;;;5000937;28;20370;-87
2023/04/06 14:07:07;;;;;;;5.88;3.95;;;;;;;;;;5007223;28;20021;-85
2023/04/06 14:09:33;;;;;;;6.28;3.92;;;;;;;;;;5005204;28;20026;-86
2023/04/06 14:11:59;;;;;;;9.55;4.57;;;;;;;;;;5013685;28;20757;-87
2023/04/06 14:14:24;;;;;;;6.15;3.70;;;;;;;;;;5030043;28;20034;-86
2023/04/06 14:16:50;;;;;;;7.25;4.35;;;;;;;;;;5024097;28;20116;-87
2023/04/06 14:19:20;;;;;;;11.30;4.80;;;;;;;;;;5024018;28;20152;-87
2023/04/06 14:21:49;;;;;;;6.03;3.97;;;;;;;;;;5026464;28;20445;-86
2023/04/06 14:24:15;;;;;;;7.95;4.05;;;;;;;;;;5024739;28;20033;-85
2023/04/06 14:26:41;;;;;;;7.35;4.63;;;;;;;;;;5031330;28;20021;-87
2023/04/06 14:29:07;;;;;;;8.25;4.70;;;;;;;;;;5020807;28;20617;-87
2023/04/06 14:31:33;;;;;;;7.13;4.55;;;;;;;;;;5024215;28;20079;-87
2023/04/06 14:34:01;;;;;;;7.97;4.70;;;;;;;;;;5019757;28;20026;-88
2023/04/06 14:36:28;;;;;;;8.32;5.13;;;;;;;;;;5016144;28;20432;-88
2023/04/06 14:38:53;;;;;;;6.97;4.65;;;;;;;;;;5014837;28;20380;-88